createdAt,value
2019-01-08T00:00:28.571Z,29.00
2019-01-08T00:01:28.575Z,31.20
2019-01-08T00:02:28.568Z,28.80
2019-01-08T00:03:28.566Z,29.10
2019-01-08T00:04:28.545Z,29.90
2019-01-08T00:05:28.544Z,27.60
2019-01-08T00:06:28.533Z,26.40
2019-01-08T00:07:28.544Z,28.00
2019-01-08T00:08:28.733Z,30.20
2019-01-08T00:09:28.537Z,27.40
2019-01-08T00:10:28.518Z,30.80
2019-01-08T00:11:28.713Z,28.30
2019-01-08T00:12:28.497Z,28.70
2019-01-08T00:13:28.506Z,30.80
2019-01-08T00:14:28.498Z,29.70
2019-01-08T00:15:28.488Z,30.00
2019-01-08T00:16:28.486Z,27.50
2019-01-08T00:17:28.472Z,30.70
2019-01-08T00:18:28.468Z,29.40
2019-01-08T00:19:28.678Z,31.10
2019-01-08T00:20:28.463Z,34.50
2019-01-08T00:21:28.659Z,32.90
2019-01-08T00:22:28.461Z,35.20
2019-01-08T00:23:28.437Z,36.60
2019-01-08T00:24:28.656Z,34.30
2019-01-08T00:25:28.429Z,32.80
2019-01-08T00:26:28.423Z,27.10
2019-01-08T00:27:28.414Z,21.50
2019-01-08T00:28:28.465Z,22.20
2019-01-08T00:29:28.421Z,20.10
2019-01-08T00:30:28.392Z,22.00
2019-01-08T00:31:28.390Z,20.80
2019-01-08T00:32:28.386Z,23.00
2019-01-08T00:33:28.375Z,24.30
2019-01-08T00:34:28.391Z,23.80
2019-01-08T00:35:28.382Z,24.60
2019-01-08T00:36:28.349Z,21.70
2019-01-08T00:37:28.348Z,22.90
2019-01-08T00:38:28.338Z,21.00
2019-01-08T00:39:28.340Z,24.90
2019-01-08T00:40:28.399Z,24.90
2019-01-08T00:41:28.319Z,29.50
2019-01-08T00:42:28.517Z,29.50
2019-01-08T00:43:28.312Z,31.20
2019-01-08T00:44:28.316Z,37.40
2019-01-08T00:45:28.289Z,34.20
2019-01-08T00:46:28.288Z,33.00
2019-01-08T00:47:28.275Z,32.60
2019-01-08T00:48:28.273Z,32.60
2019-01-08T00:49:28.468Z,32.60
2019-01-08T00:50:28.256Z,30.40
2019-01-08T00:51:28.248Z,33.90
2019-01-08T00:52:28.463Z,33.20
2019-01-08T00:53:28.239Z,35.50
2019-01-08T00:54:28.233Z,31.80
2019-01-08T00:55:28.225Z,36.20
2019-01-08T00:56:28.229Z,35.40
2019-01-08T00:57:28.227Z,35.70
2019-01-08T00:58:28.216Z,32.80
2019-01-08T00:59:28.201Z,32.90
2019-01-08T01:00:28.201Z,34.20
2019-01-08T01:01:28.197Z,34.60
2019-01-08T01:02:28.191Z,34.70
2019-01-08T01:03:28.174Z,29.30
2019-01-08T01:04:28.166Z,33.30
2019-01-08T01:05:28.160Z,31.60
2019-01-08T01:06:28.354Z,33.20
2019-01-08T01:07:28.158Z,33.90
2019-01-08T01:08:28.160Z,36.30
2019-01-08T01:10:28.145Z,32.80
2019-01-08T01:11:28.325Z,23.40
2019-01-08T01:12:28.114Z,29.50
2019-01-08T01:13:28.115Z,29.20
2019-01-08T01:14:28.298Z,28.60
2019-01-08T01:15:28.109Z,29.30
2019-01-08T01:16:28.121Z,26.20
2019-01-08T01:17:28.074Z,24.00
2019-01-08T01:18:28.270Z,23.20
2019-01-08T01:19:28.269Z,22.00
2019-01-08T01:20:28.058Z,23.60
2019-01-08T01:21:28.260Z,23.00
2019-01-08T01:22:28.266Z,24.00
2019-01-08T01:23:28.038Z,19.40
2019-01-08T01:24:28.037Z,19.40
2019-01-08T01:25:28.033Z,22.50
2019-01-08T01:26:28.027Z,22.40
2019-01-08T01:27:28.041Z,22.60
2019-01-08T01:28:28.210Z,18.40
2019-01-08T01:29:28.016Z,16.90
2019-01-08T01:30:28.194Z,21.90
2019-01-08T01:31:27.979Z,23.70
2019-01-08T01:32:28.175Z,22.30
2019-01-08T01:33:27.971Z,22.50
2019-01-08T01:34:28.185Z,20.40
2019-01-08T01:35:27.950Z,23.70
2019-01-08T01:36:27.949Z,16.30
2019-01-08T01:37:27.936Z,20.40
2019-01-08T01:38:27.931Z,22.00
2019-01-08T01:39:27.925Z,26.00
2019-01-08T01:40:28.120Z,25.60
2019-01-08T01:41:27.925Z,20.30
2019-01-08T01:42:28.136Z,14.20
2019-01-08T01:43:27.910Z,21.00
2019-01-08T01:44:27.889Z,18.80
2019-01-08T01:45:27.901Z,18.60
2019-01-08T01:46:27.888Z,17.90
2019-01-08T01:47:27.930Z,20.80
2019-01-08T01:48:28.095Z,18.80
2019-01-08T01:49:28.055Z,17.70
2019-01-08T01:50:27.862Z,16.60
2019-01-08T01:51:27.859Z,19.60
2019-01-08T01:52:27.831Z,18.10
2019-01-08T01:53:27.829Z,14.30
2019-01-08T01:54:27.834Z,19.60
2019-01-08T01:55:27.822Z,18.60
2019-01-08T01:56:27.823Z,18.30
2019-01-08T01:57:27.834Z,17.30
2019-01-08T01:58:27.820Z,19.30
2019-01-08T01:59:27.804Z,17.10
2019-01-08T02:00:27.784Z,21.00
2019-01-08T02:01:27.788Z,19.80
2019-01-08T02:02:27.790Z,18.70
2019-01-08T02:03:27.968Z,17.70
2019-01-08T02:04:27.749Z,20.80
2019-01-08T02:05:27.950Z,16.00
2019-01-08T02:06:27.739Z,17.40
2019-01-08T02:07:27.739Z,18.50
2019-01-08T02:08:27.930Z,15.70
2019-01-08T02:09:27.720Z,16.30
2019-01-08T02:10:27.724Z,19.40
2019-01-08T02:11:27.702Z,15.90
2019-01-08T02:12:27.695Z,18.80
2019-01-08T02:13:27.894Z,16.50
2019-01-08T02:14:27.690Z,17.60
2019-01-08T02:15:28.476Z,15.90
2019-01-08T02:16:27.669Z,18.30
2019-01-08T02:17:27.663Z,19.30
2019-01-08T02:18:27.663Z,19.10
2019-01-08T02:19:27.652Z,14.40
2019-01-08T02:20:27.652Z,16.40
2019-01-08T02:21:27.644Z,13.80
2019-01-08T02:22:27.632Z,13.90
2019-01-08T02:23:27.627Z,17.00
2019-01-08T02:24:27.616Z,18.00
2019-01-08T02:25:27.623Z,14.40
2019-01-08T02:26:27.616Z,16.70
2019-01-08T02:27:27.798Z,19.80
2019-01-08T02:28:27.588Z,20.30
2019-01-08T02:29:27.587Z,14.90
2019-01-08T02:30:27.884Z,20.00
2019-01-08T02:31:27.578Z,18.50
2019-01-08T02:32:27.561Z,14.20
2019-01-08T02:33:27.556Z,13.70
2019-01-08T02:34:27.560Z,17.50
2019-01-08T02:35:27.543Z,16.00
2019-01-08T02:36:27.536Z,17.80
2019-01-08T02:37:27.524Z,15.50
2019-01-08T02:38:27.541Z,13.30
2019-01-08T02:39:27.527Z,17.50
2019-01-08T02:40:27.707Z,15.30
2019-01-08T02:41:27.574Z,17.80
2019-01-08T02:42:27.492Z,11.60
2019-01-08T02:43:27.688Z,13.40
2019-01-08T02:44:27.503Z,13.40
2019-01-08T02:45:27.479Z,13.80
2019-01-08T02:46:27.473Z,13.60
2019-01-08T02:47:27.672Z,18.80
2019-01-08T02:48:27.456Z,15.20
2019-01-08T02:49:27.438Z,16.30
2019-01-08T02:50:27.437Z,17.50
2019-01-08T02:51:27.454Z,16.70
2019-01-08T02:52:27.438Z,16.30
2019-01-08T02:53:27.427Z,16.70
2019-01-08T02:54:27.493Z,17.10
2019-01-08T02:55:27.609Z,18.20
2019-01-08T02:56:27.393Z,17.90
2019-01-08T02:57:27.393Z,13.80
2019-01-08T02:58:27.592Z,17.50
2019-01-08T02:59:27.378Z,16.10
2019-01-08T03:00:27.372Z,16.00
2019-01-08T03:01:27.567Z,12.50
2019-01-08T03:02:27.356Z,13.40
2019-01-08T03:03:27.352Z,17.60
2019-01-08T03:04:27.338Z,19.50
2019-01-08T03:05:27.335Z,18.10
2019-01-08T03:06:27.332Z,16.70
2019-01-08T03:07:27.329Z,17.70
2019-01-08T03:08:27.311Z,14.60
2019-01-08T03:09:27.305Z,17.00
2019-01-08T03:10:27.320Z,16.30
2019-01-08T03:11:27.498Z,17.50
2019-01-08T03:12:27.290Z,17.00
2019-01-08T03:13:27.286Z,14.30
2019-01-08T03:14:27.484Z,16.40
2019-01-08T03:16:27.464Z,15.80
2019-01-08T03:17:27.255Z,17.50
2019-01-08T03:18:27.246Z,14.90
2019-01-08T03:19:27.237Z,15.20
2019-01-08T03:20:27.233Z,14.10
2019-01-08T03:21:27.239Z,14.40
2019-01-08T03:22:27.237Z,18.50
2019-01-08T03:23:27.217Z,15.60
2019-01-08T03:24:27.204Z,13.50
2019-01-08T03:25:27.195Z,18.10
2019-01-08T03:26:27.193Z,19.50
2019-01-08T03:27:27.186Z,15.50
2019-01-08T03:28:27.192Z,13.00
2019-01-08T03:29:33.565Z,13.50
2019-01-08T03:30:27.157Z,16.50
2019-01-08T03:31:27.365Z,18.40
2019-01-08T03:32:27.174Z,20.20
2019-01-08T03:33:27.136Z,15.20
2019-01-08T03:34:27.344Z,19.50
2019-01-08T03:35:27.133Z,16.30
2019-01-08T03:36:27.187Z,15.30
2019-01-08T03:37:27.110Z,17.10
2019-01-08T03:38:27.116Z,17.60
2019-01-08T03:39:27.098Z,21.30
2019-01-08T03:40:27.094Z,16.00
2019-01-08T03:41:27.095Z,15.90
2019-01-08T03:42:27.090Z,20.70
2019-01-08T03:43:27.067Z,13.40
2019-01-08T03:44:27.068Z,16.60
2019-01-08T03:45:27.262Z,22.90
2019-01-08T03:46:27.051Z,17.90
2019-01-08T03:47:27.051Z,15.50
2019-01-08T03:48:27.032Z,18.20
2019-01-08T03:49:27.030Z,16.00
2019-01-08T03:50:27.023Z,17.30
2019-01-08T03:51:27.228Z,17.70
2019-01-08T03:52:27.013Z,15.70
2019-01-08T03:53:27.008Z,16.00
2019-01-08T03:54:27.005Z,19.80
2019-01-08T03:55:26.991Z,18.20
2019-01-08T03:56:26.980Z,16.40
2019-01-08T03:57:27.184Z,14.40
2019-01-08T03:58:26.960Z,16.00
2019-01-08T03:59:26.959Z,17.80
2019-01-08T04:00:27.166Z,15.80
2019-01-08T04:01:26.948Z,14.80
2019-01-08T04:02:26.934Z,18.10
2019-01-08T04:03:26.930Z,17.30
2019-01-08T04:04:26.934Z,19.70
2019-01-08T04:05:26.911Z,15.40
2019-01-08T04:06:26.906Z,20.20
2019-01-08T04:07:26.903Z,14.20
2019-01-08T04:08:26.889Z,17.40
2019-01-08T04:09:26.903Z,14.10
2019-01-08T04:10:26.889Z,18.20
2019-01-08T04:11:26.877Z,21.40
2019-01-08T04:12:27.072Z,15.70
2019-01-08T04:13:26.854Z,18.20
2019-01-08T04:14:26.852Z,21.40
2019-01-08T04:16:26.839Z,17.00
2019-01-08T04:17:26.826Z,21.80
2019-01-08T04:18:26.824Z,18.20
2019-01-08T04:19:26.824Z,21.50
2019-01-08T04:20:26.804Z,17.90
2019-01-08T04:21:26.798Z,16.70
2019-01-08T04:22:26.798Z,17.70
2019-01-08T04:23:26.802Z,17.00
2019-01-08T04:24:26.784Z,19.70
2019-01-08T04:25:26.981Z,15.90
2019-01-08T04:26:26.762Z,15.40
2019-01-08T04:27:26.753Z,15.20
2019-01-08T04:28:26.956Z,18.90
2019-01-08T04:29:26.775Z,15.10
2019-01-08T04:30:26.749Z,19.40
2019-01-08T04:31:26.833Z,16.60
2019-01-08T04:32:26.722Z,16.60
2019-01-08T04:33:26.730Z,17.80
2019-01-08T04:34:26.709Z,20.30
2019-01-08T04:35:26.705Z,15.40
2019-01-08T04:36:26.696Z,21.60
2019-01-08T04:37:26.696Z,18.20
2019-01-08T04:38:26.687Z,16.90
2019-01-08T04:39:26.676Z,19.10
2019-01-08T04:40:26.679Z,16.40
2019-01-08T04:41:26.712Z,20.80
2019-01-08T04:42:26.861Z,17.70
2019-01-08T04:43:26.648Z,20.30
2019-01-08T04:44:26.636Z,23.80
2019-01-08T04:45:26.633Z,20.90
2019-01-08T04:46:26.621Z,17.00
2019-01-08T04:47:26.621Z,24.50
2019-01-08T04:48:26.668Z,18.40
2019-01-08T04:49:26.604Z,22.60
2019-01-08T04:50:26.796Z,28.60
2019-01-08T04:51:26.587Z,28.70
2019-01-08T04:52:26.582Z,27.00
2019-01-08T04:53:26.591Z,33.00
2019-01-08T04:54:26.582Z,32.20
2019-01-08T04:55:26.578Z,31.00
2019-01-08T04:56:26.571Z,34.60
2019-01-08T04:57:26.567Z,37.10
2019-01-08T04:58:26.561Z,28.70
2019-01-08T04:59:26.741Z,30.70
2019-01-08T05:00:26.546Z,30.70
2019-01-08T05:01:26.535Z,27.50
2019-01-08T05:02:26.715Z,38.60
2019-01-08T05:03:26.505Z,29.90
2019-01-08T05:04:26.500Z,26.20
2019-01-08T05:05:26.508Z,24.90
2019-01-08T05:06:26.487Z,24.50
2019-01-08T05:07:26.480Z,20.80
2019-01-08T05:08:26.466Z,24.10
2019-01-08T05:09:26.476Z,24.20
2019-01-08T05:10:26.460Z,18.70
2019-01-08T05:11:26.477Z,22.50
2019-01-08T05:12:26.669Z,19.30
2019-01-08T05:13:26.437Z,22.20
2019-01-08T05:14:26.435Z,19.90
2019-01-08T05:15:26.636Z,22.40
2019-01-08T05:16:26.414Z,15.10
2019-01-08T05:17:26.413Z,21.90
2019-01-08T05:18:26.412Z,19.70
2019-01-08T05:19:26.394Z,17.90
2019-01-08T05:20:26.411Z,18.60
2019-01-08T05:21:26.597Z,19.90
2019-01-08T05:22:26.372Z,20.30
2019-01-08T05:23:26.362Z,20.30
2019-01-08T05:24:26.560Z,17.60
2019-01-08T05:25:26.555Z,18.30
2019-01-08T05:26:26.349Z,15.90
2019-01-08T05:27:26.541Z,22.70
2019-01-08T05:28:26.327Z,25.20
2019-01-08T05:29:26.333Z,17.30
2019-01-08T05:30:26.307Z,19.70
2019-01-08T05:31:26.308Z,21.60
2019-01-08T05:32:26.301Z,15.20
2019-01-08T05:33:26.294Z,16.60
2019-01-08T05:34:26.285Z,14.00
2019-01-08T05:35:26.272Z,18.20
2019-01-08T05:36:26.477Z,18.30
2019-01-08T05:37:26.282Z,20.50
2019-01-08T05:38:26.467Z,21.00
2019-01-08T05:39:26.355Z,18.80
2019-01-08T05:40:26.276Z,20.10
2019-01-08T05:41:26.448Z,20.30
2019-01-08T05:42:26.223Z,16.30
2019-01-08T05:43:26.215Z,21.40
2019-01-08T05:44:26.216Z,18.80
2019-01-08T05:45:26.209Z,20.00
2019-01-08T05:46:26.210Z,19.00
2019-01-08T05:47:26.205Z,18.80
2019-01-08T05:48:26.201Z,18.60
2019-01-08T05:49:26.171Z,18.60
2019-01-08T05:50:26.391Z,20.10
2019-01-08T05:51:26.161Z,19.40
2019-01-08T05:52:26.170Z,18.30
2019-01-08T05:53:26.211Z,20.10
2019-01-08T05:54:26.152Z,20.10
2019-01-08T05:55:26.334Z,19.00
2019-01-08T05:56:26.154Z,20.00
2019-01-08T05:57:26.127Z,19.80
2019-01-08T05:58:26.315Z,19.40
2019-01-08T05:59:26.102Z,19.10
2019-01-08T06:00:26.106Z,21.10
2019-01-08T06:01:26.086Z,22.50
2019-01-08T06:02:26.103Z,23.50
2019-01-08T06:03:26.082Z,21.90
2019-01-08T06:04:26.070Z,24.80
2019-01-08T06:05:26.263Z,21.50
2019-01-08T06:06:26.065Z,18.50
2019-01-08T06:07:26.047Z,19.80
2019-01-08T06:08:26.053Z,27.60
2019-01-08T06:09:26.039Z,20.50
2019-01-08T06:10:26.030Z,19.70
2019-01-08T06:11:26.222Z,17.10
2019-01-08T06:12:26.021Z,19.50
2019-01-08T06:13:26.006Z,21.40
2019-01-08T06:14:26.021Z,20.70
2019-01-08T06:15:25.997Z,18.90
2019-01-08T06:16:25.988Z,23.80
2019-01-08T06:17:26.183Z,22.00
2019-01-08T06:18:26.169Z,19.90
2019-01-08T06:19:25.972Z,19.80
2019-01-08T06:20:25.951Z,22.70
2019-01-08T06:21:25.949Z,19.80
2019-01-08T06:22:25.934Z,23.40
2019-01-08T06:23:25.933Z,18.60
2019-01-08T06:24:25.941Z,18.60
2019-01-08T06:25:25.942Z,21.90
2019-01-08T06:26:26.113Z,21.40
2019-01-08T06:27:25.915Z,19.80
2019-01-08T06:28:25.918Z,19.00
2019-01-08T06:29:25.898Z,19.50
2019-01-08T06:30:25.886Z,20.30
2019-01-08T06:31:25.947Z,19.50
2019-01-08T06:32:25.880Z,21.80
2019-01-08T06:33:25.859Z,18.00
2019-01-08T06:34:25.862Z,19.20
2019-01-08T06:35:25.857Z,18.50
2019-01-08T06:36:26.331Z,21.40
2019-01-08T06:37:25.857Z,23.10
2019-01-08T06:38:25.824Z,25.20
2019-01-08T06:39:25.819Z,23.00
2019-01-08T06:40:25.815Z,21.90
2019-01-08T06:41:25.814Z,20.50
2019-01-08T06:42:25.795Z,19.80
2019-01-08T06:43:25.793Z,21.50
2019-01-08T06:44:25.987Z,21.50
2019-01-08T06:45:25.771Z,21.20
2019-01-08T06:46:25.980Z,20.00
2019-01-08T06:47:25.968Z,17.80
2019-01-08T06:48:25.751Z,21.80
2019-01-08T06:49:25.763Z,20.90
2019-01-08T06:50:25.740Z,21.70
2019-01-08T06:51:25.765Z,22.10
2019-01-08T06:52:25.756Z,19.50
2019-01-08T06:53:25.732Z,18.30
2019-01-08T06:54:25.711Z,23.30
2019-01-08T06:55:25.705Z,21.80
2019-01-08T06:56:25.703Z,23.90
2019-01-08T06:57:25.691Z,20.80
2019-01-08T06:58:25.681Z,26.80
2019-01-08T06:59:25.682Z,19.30
2019-01-08T07:00:32.995Z,20.30
2019-01-08T07:01:25.661Z,20.20
2019-01-08T07:02:25.652Z,24.60
2019-01-08T07:03:25.651Z,22.50
2019-01-08T07:04:25.683Z,20.10
2019-01-08T07:05:25.868Z,20.90
2019-01-08T07:06:25.620Z,22.70
2019-01-08T07:07:25.830Z,22.40
2019-01-08T07:08:25.622Z,22.20
2019-01-08T07:09:25.613Z,25.60
2019-01-08T07:10:25.595Z,24.00
2019-01-08T07:11:25.593Z,19.30
2019-01-08T07:12:25.599Z,21.70
2019-01-08T07:13:25.572Z,26.30
2019-01-08T07:14:25.595Z,24.10
2019-01-08T07:15:25.564Z,22.90
2019-01-08T07:16:25.566Z,23.30
2019-01-08T07:17:25.556Z,24.50
2019-01-08T07:18:25.549Z,22.80
2019-01-08T07:19:25.733Z,23.40
2019-01-08T07:20:25.525Z,21.60
2019-01-08T07:21:25.529Z,21.80
2019-01-08T07:22:25.717Z,21.70
2019-01-08T07:23:25.709Z,19.80
2019-01-08T07:24:25.511Z,23.70
2019-01-08T07:25:25.514Z,21.90
2019-01-08T07:26:25.492Z,25.90
2019-01-08T07:27:25.505Z,23.90
2019-01-08T07:28:25.679Z,23.10
2019-01-08T07:29:25.680Z,21.60
2019-01-08T07:30:25.517Z,24.10
2019-01-08T07:31:25.451Z,24.50
2019-01-08T07:32:25.447Z,23.80
2019-01-08T07:33:25.420Z,24.00
2019-01-08T07:34:25.417Z,20.10
2019-01-08T07:35:25.410Z,19.10
2019-01-08T07:36:25.410Z,23.90
2019-01-08T07:37:25.403Z,23.30
2019-01-08T07:38:25.395Z,26.70
2019-01-08T07:39:25.377Z,24.50
2019-01-08T07:40:25.367Z,26.70
2019-01-08T07:41:25.371Z,24.80
2019-01-08T07:42:25.555Z,29.30
2019-01-08T07:43:25.368Z,22.30
2019-01-08T07:44:25.335Z,26.40
2019-01-08T07:45:25.329Z,32.30
2019-01-08T07:46:25.527Z,27.60
2019-01-08T07:47:25.324Z,26.10
2019-01-08T07:48:25.314Z,30.70
2019-01-08T07:49:25.312Z,26.10
2019-01-08T07:50:25.296Z,25.20
2019-01-08T07:51:25.289Z,29.60
2019-01-08T07:52:25.479Z,32.60
2019-01-08T07:53:25.268Z,31.30
2019-01-08T07:54:25.336Z,31.00
2019-01-08T07:55:25.271Z,27.80
2019-01-08T07:56:25.456Z,24.20
2019-01-08T07:57:25.242Z,25.20
2019-01-08T07:58:25.436Z,25.80
2019-01-08T07:59:25.424Z,26.70
2019-01-08T08:00:25.224Z,22.90
2019-01-08T08:01:25.228Z,27.40
2019-01-08T08:02:25.201Z,22.30
2019-01-08T08:03:25.207Z,23.50
2019-01-08T08:04:25.211Z,25.20
2019-01-08T08:05:25.185Z,22.70
2019-01-08T08:06:25.169Z,24.10
2019-01-08T08:07:25.363Z,23.20
2019-01-08T08:08:25.376Z,22.30
2019-01-08T08:09:25.157Z,21.40
2019-01-08T08:10:25.346Z,26.70
2019-01-08T08:11:25.133Z,27.70
2019-01-08T08:12:25.123Z,24.90
2019-01-08T08:13:25.325Z,21.80
2019-01-08T08:14:25.110Z,25.40
2019-01-08T08:15:25.108Z,59.70
2019-01-08T08:16:25.098Z,24.30
2019-01-08T08:17:25.094Z,23.90
2019-01-08T08:18:25.092Z,20.40
2019-01-08T08:19:25.069Z,22.80
2019-01-08T08:20:25.278Z,26.60
2019-01-08T08:21:25.057Z,21.20
2019-01-08T08:22:25.053Z,20.80
2019-01-08T08:23:25.059Z,23.70
2019-01-08T08:24:25.070Z,21.20
2019-01-08T08:25:25.033Z,23.40
2019-01-08T08:26:25.020Z,26.50
2019-01-08T08:27:25.018Z,22.20
2019-01-08T08:28:25.003Z,19.20
2019-01-08T08:29:25.001Z,18.20
2019-01-08T08:30:26.257Z,17.90
2019-01-08T08:31:25.191Z,18.40
2019-01-08T08:32:25.192Z,19.70
2019-01-08T08:33:24.972Z,21.00
2019-01-08T08:34:24.984Z,18.50
2019-01-08T08:35:24.952Z,18.80
2019-01-08T08:36:24.955Z,17.80
2019-01-08T08:37:24.965Z,18.60
2019-01-08T08:38:24.933Z,16.70
2019-01-08T08:39:24.927Z,19.40
2019-01-08T08:40:24.930Z,17.10
2019-01-08T08:41:24.915Z,21.30
2019-01-08T08:42:24.904Z,21.30
2019-01-08T08:43:24.899Z,18.40
2019-01-08T08:44:24.889Z,21.50
2019-01-08T08:45:24.882Z,21.90
2019-01-08T08:46:24.891Z,23.60
2019-01-08T08:47:24.870Z,21.60
2019-01-08T08:48:24.864Z,20.40
2019-01-08T08:49:25.081Z,20.10
2019-01-08T08:50:24.843Z,19.50
2019-01-08T08:51:24.834Z,16.80
2019-01-08T08:52:24.831Z,16.10
2019-01-08T08:53:25.028Z,17.60
2019-01-08T08:54:24.821Z,16.20
2019-01-08T08:55:24.820Z,18.60
2019-01-08T08:56:25.005Z,22.10
2019-01-08T08:57:24.795Z,17.30
2019-01-08T08:58:24.803Z,20.10
2019-01-08T08:59:24.775Z,17.10
2019-01-08T09:00:24.786Z,16.60
2019-01-08T09:01:24.759Z,19.60
2019-01-08T09:02:24.756Z,17.60
2019-01-08T09:03:24.751Z,14.20
2019-01-08T09:04:24.756Z,12.00
2019-01-08T09:05:24.729Z,17.80
2019-01-08T09:06:24.722Z,17.90
2019-01-08T09:07:24.727Z,15.20
2019-01-08T09:08:24.715Z,16.30
2019-01-08T09:09:24.912Z,17.70
2019-01-08T09:10:24.704Z,15.60
2019-01-08T09:11:24.704Z,19.00
2019-01-08T09:12:24.678Z,15.30
2019-01-08T09:13:24.671Z,14.90
2019-01-08T09:14:24.869Z,14.60
2019-01-08T09:15:24.658Z,15.50
2019-01-08T09:16:24.653Z,13.40
2019-01-08T09:17:24.640Z,15.40
2019-01-08T09:18:24.640Z,14.40
2019-01-08T09:19:24.635Z,16.00
2019-01-08T09:20:24.630Z,16.60
2019-01-08T09:21:24.616Z,14.30
2019-01-08T09:22:24.609Z,13.00
2019-01-08T09:23:24.599Z,15.80
2019-01-08T09:24:24.587Z,18.80
2019-01-08T09:25:24.581Z,17.20
2019-01-08T09:26:24.580Z,13.80
2019-01-08T09:27:24.574Z,13.10
2019-01-08T09:28:24.566Z,15.20
2019-01-08T09:29:24.555Z,13.60
2019-01-08T09:30:24.563Z,13.10
2019-01-08T09:31:24.539Z,15.90
2019-01-08T09:32:24.744Z,11.80
2019-01-08T09:33:24.529Z,15.10
2019-01-08T09:34:24.546Z,14.40
2019-01-08T09:35:24.506Z,15.60
2019-01-08T09:36:24.509Z,11.90
2019-01-08T09:37:24.492Z,15.80
2019-01-08T09:38:24.490Z,13.00
2019-01-08T09:39:24.488Z,12.20
2019-01-08T09:40:24.475Z,16.60
2019-01-08T09:41:24.691Z,17.60
2019-01-08T09:42:24.457Z,16.90
2019-01-08T09:43:24.466Z,15.60
2019-01-08T09:44:24.461Z,18.90
2019-01-08T09:45:24.435Z,16.20
2019-01-08T09:46:24.634Z,15.40
2019-01-08T09:47:24.418Z,17.10
2019-01-08T09:48:24.417Z,15.10
2019-01-08T09:49:26.047Z,17.80
2019-01-08T09:50:24.411Z,16.00
2019-01-08T09:51:24.388Z,19.10
2019-01-08T09:52:24.394Z,16.00
2019-01-08T09:53:24.376Z,15.50
2019-01-08T09:54:24.397Z,13.60
2019-01-08T09:55:24.360Z,13.90
2019-01-08T09:56:24.358Z,15.20
2019-01-08T09:57:24.343Z,15.10
2019-01-08T09:58:24.339Z,18.10
2019-01-08T09:59:24.335Z,18.30
2019-01-08T10:00:24.322Z,14.40
2019-01-08T10:01:24.346Z,18.80
2019-01-08T10:02:24.304Z,17.30
2019-01-08T10:03:24.303Z,17.10
2019-01-08T10:04:24.299Z,18.20
2019-01-08T10:05:24.298Z,19.60
2019-01-08T10:06:24.274Z,15.10
2019-01-08T10:07:24.282Z,18.60
2019-01-08T10:08:24.262Z,18.60
2019-01-08T10:09:24.260Z,19.90
2019-01-08T10:10:24.252Z,19.70
2019-01-08T10:11:24.246Z,22.20
2019-01-08T10:12:24.250Z,17.80
2019-01-08T10:13:24.227Z,17.50
2019-01-08T10:14:24.224Z,21.90
2019-01-08T10:15:24.226Z,21.80
2019-01-08T10:16:24.408Z,23.10
2019-01-08T10:17:24.200Z,22.50
2019-01-08T10:18:24.199Z,23.10
2019-01-08T10:19:24.415Z,18.80
2019-01-08T10:20:24.183Z,21.00
2019-01-08T10:21:24.164Z,21.60
2019-01-08T10:22:24.162Z,23.70
2019-01-08T10:23:24.356Z,22.80
2019-01-08T10:24:24.179Z,24.60
2019-01-08T10:25:24.152Z,22.00
2019-01-08T10:26:24.129Z,29.00
2019-01-08T10:27:24.139Z,24.30
2019-01-08T10:28:24.317Z,18.80
2019-01-08T10:29:24.122Z,20.50
2019-01-08T10:30:24.328Z,23.20
2019-01-08T10:31:32.159Z,20.70
2019-01-08T10:32:24.089Z,20.70
2019-01-08T10:33:24.095Z,22.40
2019-01-08T10:34:24.069Z,23.50
2019-01-08T10:35:24.077Z,24.80
2019-01-08T10:36:24.255Z,21.50
2019-01-08T10:37:24.064Z,24.00
2019-01-08T10:38:24.048Z,19.00
2019-01-08T10:39:24.043Z,19.90
2019-01-08T10:40:24.039Z,23.80
2019-01-08T10:41:24.018Z,23.30
2019-01-08T10:42:24.006Z,19.90
2019-01-08T10:43:24.021Z,26.60
2019-01-08T10:44:23.999Z,22.50
2019-01-08T10:45:24.001Z,22.00
2019-01-08T10:46:23.986Z,24.60
2019-01-08T10:47:23.979Z,18.80
2019-01-08T10:48:23.963Z,22.30
2019-01-08T10:49:23.970Z,23.40
2019-01-08T10:50:23.949Z,21.60
2019-01-08T10:51:24.152Z,20.50
2019-01-08T10:52:23.954Z,19.30
2019-01-08T10:53:24.149Z,20.40
2019-01-08T10:54:23.951Z,20.90
2019-01-08T10:55:23.932Z,22.20
2019-01-08T10:56:23.907Z,22.20
2019-01-08T10:57:23.915Z,19.00
2019-01-08T10:58:23.893Z,21.70
2019-01-08T10:59:23.898Z,22.30
2019-01-08T11:00:23.890Z,21.00
2019-01-08T11:01:23.877Z,25.60
2019-01-08T11:02:23.884Z,22.60
2019-01-08T11:03:24.064Z,22.70
2019-01-08T11:04:23.867Z,21.40
2019-01-08T11:05:25.745Z,21.30
2019-01-08T11:06:23.849Z,20.20
2019-01-08T11:07:23.824Z,22.90
2019-01-08T11:08:23.849Z,16.70
2019-01-08T11:09:23.816Z,25.60
2019-01-08T11:10:23.824Z,23.50
2019-01-08T11:11:23.819Z,21.30
2019-01-08T11:12:23.791Z,22.00
2019-01-08T11:13:23.781Z,16.60
2019-01-08T11:14:23.778Z,23.30
2019-01-08T11:15:23.783Z,18.70
2019-01-08T11:16:23.781Z,17.60
2019-01-08T11:17:23.748Z,22.60
2019-01-08T11:18:23.947Z,21.10
2019-01-08T11:19:23.740Z,18.70
2019-01-08T11:20:23.754Z,17.10
2019-01-08T11:21:23.726Z,19.90
2019-01-08T11:22:25.283Z,18.00
2019-01-08T11:23:23.911Z,18.70
2019-01-08T11:24:23.734Z,18.20
2019-01-08T11:25:23.707Z,17.20
2019-01-08T11:26:23.698Z,16.80
2019-01-08T11:27:23.698Z,21.00
2019-01-08T11:28:23.687Z,22.70
2019-01-08T11:29:23.664Z,22.30
2019-01-08T11:30:23.672Z,21.90
2019-01-08T11:31:23.665Z,22.60
2019-01-08T11:32:23.656Z,26.00
2019-01-08T11:33:23.648Z,22.10
2019-01-08T11:34:23.643Z,23.20
2019-01-08T11:35:23.861Z,18.20
2019-01-08T11:36:23.633Z,27.00
2019-01-08T11:37:23.615Z,21.90
2019-01-08T11:38:23.799Z,28.70
2019-01-08T11:39:23.608Z,27.90
2019-01-08T11:40:23.604Z,22.00
2019-01-08T11:41:23.598Z,29.40
2019-01-08T11:42:23.592Z,22.70
2019-01-08T11:43:23.582Z,20.80
2019-01-08T11:44:24.468Z,19.50
2019-01-08T11:45:23.569Z,18.70
2019-01-08T11:46:23.546Z,18.50
2019-01-08T11:47:23.547Z,23.40
2019-01-08T11:48:23.525Z,20.00
2019-01-08T11:49:23.522Z,21.30
2019-01-08T11:50:23.716Z,25.40
2019-01-08T11:51:23.507Z,23.30
2019-01-08T11:52:23.491Z,24.30
2019-01-08T11:53:23.487Z,21.00
2019-01-08T11:54:23.500Z,20.10
2019-01-08T11:55:23.476Z,21.60
2019-01-08T11:56:23.680Z,23.30
2019-01-08T11:57:23.672Z,23.80
2019-01-08T11:58:23.656Z,21.50
2019-01-08T11:59:23.458Z,23.20
2019-01-08T12:00:23.449Z,24.10
2019-01-08T12:01:23.435Z,25.00
2019-01-08T12:02:23.418Z,21.70
2019-01-08T12:03:23.440Z,22.00
2019-01-08T12:04:23.412Z,22.40
2019-01-08T12:05:23.406Z,25.70
2019-01-08T12:06:23.395Z,22.70
2019-01-08T12:07:30.936Z,29.50
2019-01-08T12:08:23.390Z,23.20
2019-01-08T12:09:23.378Z,29.70
2019-01-08T12:10:23.372Z,28.00
2019-01-08T12:11:23.364Z,26.90
2019-01-08T12:12:23.352Z,25.20
2019-01-08T12:13:23.346Z,24.20
2019-01-08T12:14:23.347Z,23.00
2019-01-08T12:15:23.527Z,23.70
2019-01-08T12:16:23.329Z,24.20
2019-01-08T12:17:23.316Z,20.90
2019-01-08T12:18:23.304Z,26.60
2019-01-08T12:19:23.303Z,22.60
2019-01-08T12:20:23.299Z,19.60
2019-01-08T12:21:23.486Z,20.60
2019-01-08T12:22:23.284Z,26.30
2019-01-08T12:23:23.267Z,22.50
2019-01-08T12:24:23.459Z,23.60
2019-01-08T12:25:23.262Z,22.80
2019-01-08T12:26:23.243Z,21.10
2019-01-08T12:27:23.447Z,24.10
2019-01-08T12:28:23.243Z,21.40
2019-01-08T12:29:23.436Z,23.10
2019-01-08T12:30:23.231Z,24.70
2019-01-08T12:31:23.206Z,23.10
2019-01-08T12:32:23.206Z,26.40
2019-01-08T12:33:23.218Z,27.60
2019-01-08T12:34:23.181Z,25.40
2019-01-08T12:35:23.178Z,25.50
2019-01-08T12:36:23.170Z,28.20
2019-01-08T12:37:23.160Z,23.20
2019-01-08T12:38:23.163Z,23.00
2019-01-08T12:39:23.145Z,21.00
2019-01-08T12:40:23.167Z,23.70
2019-01-08T12:41:23.130Z,26.90
2019-01-08T12:42:23.340Z,25.10
2019-01-08T12:43:23.129Z,24.90
2019-01-08T12:44:23.120Z,27.30
2019-01-08T12:45:23.120Z,31.70
2019-01-08T12:46:23.102Z,27.70
2019-01-08T12:47:23.088Z,24.60
2019-01-08T12:48:23.076Z,19.70
2019-01-08T12:49:23.065Z,27.50
2019-01-08T12:50:23.058Z,31.10
2019-01-08T12:51:23.063Z,25.80
2019-01-08T12:52:23.059Z,28.60
2019-01-08T12:53:23.041Z,26.10
2019-01-08T12:54:23.044Z,24.40
2019-01-08T12:55:23.055Z,24.70